createdAt,value
2023-01-18T00:01:05.292Z,98481.44
2023-01-18T00:03:35.899Z,98469.69
2023-01-18T00:06:04.474Z,98479.69
2023-01-18T00:08:33.085Z,98482.53
2023-01-18T00:11:10.939Z,98489.44
2023-01-18T00:13:39.402Z,98486.69
2023-01-18T00:16:21.365Z,98490.63
2023-01-18T00:18:56.910Z,98490.81
2023-01-18T00:21:25.159Z,98490.06
2023-01-18T00:23:52.881Z,98489.22
2023-01-18T00:26:19.576Z,98488.03
2023-01-18T00:28:46.370Z,98491.53
2023-01-18T00:31:19.336Z,98495.06
2023-01-18T00:33:48.211Z,98483.78
2023-01-18T00:36:16.027Z,98492.16
2023-01-18T00:38:44.306Z,98499.66
2023-01-18T00:41:11.135Z,98501.38
2023-01-18T00:43:40.661Z,98505.84
2023-01-18T00:46:10.792Z,98508.75
2023-01-18T00:48:41.359Z,98517.94
2023-01-18T00:51:11.364Z,98512.91
2023-01-18T00:53:38.730Z,98515.91
2023-01-18T00:56:07.274Z,98519.94
2023-01-18T00:58:34.051Z,98526.78
2023-01-18T01:01:02.482Z,98532.38
2023-01-18T01:03:29.378Z,98543.16
2023-01-18T01:06:15.749Z,98541.56
2023-01-18T01:08:50.235Z,98544.44
2023-01-18T01:11:16.929Z,98539.75
2023-01-18T01:14:02.018Z,98550.44
2023-01-18T01:16:47.435Z,98547.03
2023-01-18T01:19:32.757Z,98552.38
2023-01-18T01:22:18.026Z,98560.69
2023-01-18T01:25:03.075Z,98564.97
2023-01-18T01:27:31.083Z,98560.69
2023-01-18T01:30:01.337Z,98574.25
2023-01-18T01:32:28.943Z,98565.41
2023-01-18T01:34:56.547Z,98568.84
2023-01-18T01:37:23.189Z,98574.41
2023-01-18T01:39:49.975Z,98570.44
2023-01-18T01:42:22.009Z,98582.81
2023-01-18T01:44:52.065Z,98580.19
2023-01-18T01:47:53.748Z,98597.25
2023-01-18T01:50:39.429Z,98594.47
2023-01-18T01:53:07.511Z,98603.13
2023-01-18T01:55:41.134Z,98601.56
2023-01-18T01:58:15.949Z,98619.50
2023-01-18T02:00:44.669Z,98618.00
2023-01-18T02:03:18.815Z,98619.28
2023-01-18T02:05:51.475Z,98612.66
2023-01-18T02:08:25.062Z,98618.75
2023-01-18T02:10:52.744Z,98611.78
2023-01-18T02:13:23.022Z,98621.00
2023-01-18T02:15:57.711Z,98617.78
2023-01-18T02:18:50.648Z,98612.34
2023-01-18T02:21:28.340Z,98624.00
2023-01-18T02:24:10.138Z,98625.28
2023-01-18T02:26:51.854Z,98634.91
2023-01-18T02:29:41.311Z,98632.75
2023-01-18T02:32:14.336Z,98637.13
2023-01-18T02:34:48.367Z,98637.34
2023-01-18T02:37:47.121Z,98643.84
2023-01-18T02:40:32.392Z,98641.28
2023-01-18T02:43:21.735Z,98654.34
2023-01-18T02:46:09.057Z,98643.66
2023-01-18T02:48:43.796Z,98653.47
2023-01-18T02:51:11.769Z,98661.56
2023-01-18T02:53:42.887Z,98659.88
2023-01-18T02:56:27.798Z,98663.97
2023-01-18T02:59:10.162Z,98662.44
2023-01-18T03:01:49.188Z,98671.03
2023-01-18T03:04:26.649Z,98677.16
2023-01-18T03:07:02.609Z,98668.72
2023-01-18T03:09:31.198Z,98660.94
2023-01-18T03:12:06.302Z,98654.09
2023-01-18T03:14:53.306Z,98651.34
2023-01-18T03:17:52.200Z,98674.50
2023-01-18T03:20:25.824Z,98671.47
2023-01-18T03:23:20.611Z,98663.47
2023-01-18T03:25:50.725Z,98667.97
2023-01-18T03:28:55.361Z,98654.22
2023-01-18T03:31:52.360Z,98661.38
2023-01-18T03:34:42.764Z,98659.22
2023-01-18T03:37:14.720Z,98655.81
2023-01-18T03:39:46.779Z,98663.59
2023-01-18T03:42:20.113Z,98664.91
2023-01-18T03:45:00.835Z,98658.09
2023-01-18T03:47:28.523Z,98651.25
2023-01-18T03:49:55.273Z,98651.16
2023-01-18T03:52:45.305Z,98649.56
2023-01-18T03:55:26.291Z,98645.69
2023-01-18T03:58:06.242Z,98657.75
2023-01-18T04:00:33.532Z,98661.41
2023-01-18T04:03:01.700Z,98667.16
2023-01-18T04:05:28.695Z,98663.75
2023-01-18T04:07:55.492Z,98654.34
2023-01-18T04:10:22.348Z,98655.22
2023-01-18T04:12:49.217Z,98649.22
2023-01-18T04:15:18.149Z,98656.69
2023-01-18T04:17:44.899Z,98662.38
2023-01-18T04:20:12.846Z,98650.63
2023-01-18T04:22:39.682Z,98649.88
2023-01-18T04:25:06.846Z,98655.31
2023-01-18T04:27:33.582Z,98655.19
2023-01-18T04:30:02.074Z,98655.44
2023-01-18T04:32:29.147Z,98655.09
2023-01-18T04:34:57.627Z,98655.84
2023-01-18T04:37:30.424Z,98648.34
2023-01-18T04:39:57.876Z,98654.03
2023-01-18T04:42:26.304Z,98654.91
2023-01-18T04:44:53.599Z,98660.00
2023-01-18T04:47:20.311Z,98650.94
2023-01-18T04:49:48.257Z,98656.28
2023-01-18T04:52:19.038Z,98654.34
2023-01-18T04:54:45.888Z,98657.88
2023-01-18T04:57:13.211Z,98663.53
2023-01-18T04:59:40.629Z,98671.78
2023-01-18T05:02:07.324Z,98660.78
2023-01-18T05:04:34.846Z,98668.91
2023-01-18T05:07:02.317Z,98661.31
2023-01-18T05:09:31.339Z,98658.97
2023-01-18T05:11:58.871Z,98670.50
2023-01-18T05:14:25.673Z,98676.91
2023-01-18T05:16:53.387Z,98673.69
2023-01-18T05:19:20.783Z,98672.09
2023-01-18T05:21:49.145Z,98676.16
2023-01-18T05:24:16.922Z,98677.00
2023-01-18T05:26:43.645Z,98681.19
2023-01-18T05:29:10.333Z,98688.03
2023-01-18T05:31:37.892Z,98685.56
2023-01-18T05:34:06.001Z,98688.84
2023-01-18T05:36:33.741Z,98689.84
2023-01-18T05:39:01.986Z,98700.53
2023-01-18T05:41:30.056Z,98698.84
2023-01-18T05:43:56.800Z,98699.88
2023-01-18T05:46:23.798Z,98713.88
2023-01-18T05:48:52.749Z,98712.44
2023-01-18T05:51:19.418Z,98714.91
2023-01-18T05:53:46.157Z,98722.50
2023-01-18T05:56:13.541Z,98720.78
2023-01-18T05:58:40.294Z,98732.09
2023-01-18T06:01:08.760Z,98739.22
2023-01-18T06:03:37.038Z,98735.53
2023-01-18T06:06:04.130Z,98748.88
2023-01-18T06:08:34.522Z,98742.22
2023-01-18T06:11:04.207Z,98756.94
2023-01-18T06:13:31.994Z,98752.78
2023-01-18T06:16:01.807Z,98757.28
2023-01-18T06:18:31.292Z,98750.66
2023-01-18T06:21:01.513Z,98757.38
2023-01-18T06:23:47.869Z,98756.06
2023-01-18T06:26:14.612Z,98758.69
2023-01-18T06:28:42.693Z,98760.31
2023-01-18T06:31:10.518Z,98763.75
2023-01-18T06:33:37.581Z,98768.41
2023-01-18T06:36:06.985Z,98773.69
2023-01-18T06:38:33.949Z,98772.72
2023-01-18T06:41:04.332Z,98783.59
2023-01-18T06:43:33.252Z,98778.19
2023-01-18T06:46:00.156Z,98774.03
2023-01-18T06:48:29.924Z,98780.53
2023-01-18T06:50:58.306Z,98790.06
2023-01-18T06:53:25.298Z,98795.47
2023-01-18T06:55:57.179Z,98798.25
2023-01-18T06:58:27.506Z,98804.97
2023-01-18T07:01:00.038Z,98803.13
2023-01-18T07:03:29.160Z,98808.72
2023-01-18T07:06:01.684Z,98820.69
2023-01-18T07:08:33.315Z,98823.16
2023-01-18T07:11:05.667Z,98830.72
2023-01-18T07:13:32.889Z,98824.06
2023-01-18T07:16:01.941Z,98826.13
2023-01-18T07:18:30.423Z,98835.19
2023-01-18T07:21:00.583Z,98848.53
2023-01-18T07:23:28.692Z,98856.56
2023-01-18T07:26:09.390Z,98860.75
2023-01-18T07:28:36.520Z,98861.28
2023-01-18T07:31:05.881Z,98860.72
2023-01-18T07:33:32.744Z,98871.78
2023-01-18T07:36:02.583Z,98881.53
2023-01-18T07:38:30.304Z,98884.69
2023-01-18T07:41:05.668Z,98880.75
2023-01-18T07:43:33.414Z,98893.34
2023-01-18T07:46:01.954Z,98887.63
2023-01-18T07:48:28.823Z,98896.22
2023-01-18T07:51:04.248Z,98905.47
2023-01-18T07:53:33.472Z,98901.63
2023-01-18T07:56:02.326Z,98894.88
2023-01-18T07:58:30.102Z,98903.63
2023-01-18T08:01:03.412Z,98910.69
2023-01-18T08:03:30.167Z,98921.75
2023-01-18T08:06:01.811Z,98927.25
2023-01-18T08:08:31.704Z,98928.09
2023-01-18T08:11:00.603Z,98927.81
2023-01-18T08:13:34.902Z,98934.19
2023-01-18T08:16:05.621Z,98941.75
2023-01-18T08:18:33.241Z,98941.25
2023-01-18T08:21:01.221Z,98947.25
2023-01-18T08:23:28.055Z,98943.72
2023-01-18T08:25:55.479Z,98951.31
2023-01-18T08:28:22.634Z,98947.03
2023-01-18T08:30:49.849Z,98949.72
2023-01-18T08:33:16.740Z,98953.81
2023-01-18T08:35:47.732Z,98958.19
2023-01-18T08:38:15.879Z,98966.84
2023-01-18T08:40:42.864Z,98964.78
2023-01-18T08:43:11.717Z,98970.50
2023-01-18T08:45:39.765Z,98971.09
2023-01-18T08:48:09.595Z,98968.50
2023-01-18T08:50:36.756Z,98978.72
2023-01-18T08:53:04.306Z,98989.66
2023-01-18T08:55:31.623Z,98991.31
2023-01-18T08:57:59.054Z,99002.13
2023-01-18T09:00:28.556Z,99002.41
2023-01-18T09:02:56.218Z,98995.53
2023-01-18T09:05:24.753Z,99009.28
2023-01-18T09:07:55.790Z,99017.59
2023-01-18T09:10:23.472Z,99015.78
2023-01-18T09:12:52.799Z,99022.25
2023-01-18T09:15:20.537Z,99026.56
2023-01-18T09:17:47.218Z,99033.50
2023-01-18T09:20:13.920Z,99040.38
2023-01-18T09:22:42.778Z,99044.53
2023-01-18T09:25:10.592Z,99049.34
2023-01-18T09:27:37.559Z,99061.22
2023-01-18T09:30:06.069Z,99060.16
2023-01-18T09:32:32.731Z,99073.53
2023-01-18T09:34:59.448Z,99081.44
2023-01-18T09:37:26.252Z,99082.03
2023-01-18T09:39:53.023Z,99099.41
2023-01-18T09:42:22.715Z,99107.13
2023-01-18T09:44:52.895Z,99107.31
2023-01-18T09:47:36.824Z,99116.03
2023-01-18T09:50:15.138Z,99128.13
2023-01-18T09:52:52.307Z,99121.19
2023-01-18T09:55:22.518Z,99125.97
2023-01-18T09:58:08.653Z,99122.84
2023-01-18T10:00:37.516Z,99132.19
2023-01-18T10:03:12.928Z,99144.47
2023-01-18T10:05:51.753Z,99154.34
2023-01-18T10:08:25.327Z,99159.00
2023-01-18T10:11:09.719Z,99170.22
2023-01-18T10:13:51.954Z,99166.63
2023-01-18T10:16:20.227Z,99178.22
2023-01-18T10:18:53.498Z,99188.88
2023-01-18T10:21:30.792Z,99177.63
2023-01-18T10:24:04.328Z,99189.91
2023-01-18T10:26:32.220Z,99192.53
2023-01-18T10:29:12.863Z,99191.47
2023-01-18T10:32:03.574Z,99197.41
2023-01-18T10:34:36.297Z,99192.75
2023-01-18T10:37:14.511Z,99204.28
2023-01-18T10:39:48.017Z,99206.22
2023-01-18T10:42:22.758Z,99215.59
2023-01-18T10:44:49.869Z,99209.66
2023-01-18T10:47:19.605Z,99215.78
2023-01-18T10:49:48.509Z,99227.31
2023-01-18T10:52:27.990Z,99225.59
2023-01-18T10:54:56.764Z,99235.22
2023-01-18T10:57:28.675Z,99248.50
2023-01-18T10:59:56.880Z,99234.13
2023-01-18T11:02:28.136Z,99240.56
2023-01-18T11:04:59.818Z,99237.44
2023-01-18T11:07:27.799Z,99239.94
2023-01-18T11:09:59.370Z,99240.44
2023-01-18T11:12:43.594Z,99243.38
2023-01-18T11:15:13.266Z,99252.66
2023-01-18T11:17:42.311Z,99249.13
2023-01-18T11:20:48.068Z,99247.59
2023-01-18T11:23:35.765Z,99257.91
2023-01-18T11:26:06.457Z,99252.28
2023-01-18T11:28:55.463Z,99249.41
2023-01-18T11:31:24.130Z,99254.19
2023-01-18T11:33:56.987Z,99259.06
2023-01-18T11:36:39.167Z,99255.34
2023-01-18T11:39:19.693Z,99267.94
2023-01-18T11:41:46.514Z,99266.13
2023-01-18T11:44:25.178Z,99270.63
2023-01-18T11:46:55.692Z,99274.81
2023-01-18T11:50:21.019Z,99271.75
2023-01-18T11:53:00.222Z,99282.09
2023-01-18T11:55:41.630Z,99273.47
2023-01-18T11:58:21.734Z,99279.22
2023-01-18T12:00:59.337Z,99276.06
2023-01-18T12:03:54.975Z,99286.59
2023-01-18T12:06:33.812Z,99285.06
2023-01-18T12:09:12.990Z,99287.47
2023-01-18T12:12:17.883Z,99291.75
2023-01-18T12:15:19.408Z,99296.72
2023-01-18T12:17:58.609Z,99304.38
2023-01-18T12:20:43.532Z,99308.50
2023-01-18T12:23:22.389Z,99304.47
2023-01-18T12:26:10.662Z,99302.56
2023-01-18T12:29:20.369Z,99309.72
2023-01-18T12:32:06.577Z,99308.34
2023-01-18T12:35:12.618Z,99305.13
2023-01-18T12:38:24.628Z,99309.44
2023-01-18T12:41:28.521Z,99314.78
2023-01-18T12:44:10.467Z,99312.28
2023-01-18T12:47:06.043Z,99327.75
2023-01-18T12:49:41.663Z,99320.97
2023-01-18T12:52:19.010Z,99333.53
2023-01-18T12:54:50.762Z,99327.38
2023-01-18T12:57:19.684Z,99329.69
2023-01-18T13:00:06.294Z,99333.91
2023-01-18T13:02:39.719Z,99342.31
2023-01-18T13:05:33.853Z,99339.53
2023-01-18T13:08:21.086Z,99345.41
2023-01-18T13:10:48.728Z,99336.19
2023-01-18T13:13:22.412Z,99338.13
2023-01-18T13:16:02.162Z,99345.56
2023-01-18T13:18:56.480Z,99347.09
2023-01-18T13:21:43.380Z,99343.06
2023-01-18T13:24:29.810Z,99347.09
2023-01-18T13:27:12.821Z,99350.25
2023-01-18T13:29:41.096Z,99360.66
2023-01-18T13:32:24.362Z,99364.41
2023-01-18T13:35:19.483Z,99368.53
2023-01-18T13:37:56.088Z,99370.66
2023-01-18T13:40:39.582Z,99367.56
2023-01-18T13:43:26.612Z,99372.84
2023-01-18T13:46:04.153Z,99378.22
2023-01-18T13:48:50.959Z,99393.59
2023-01-18T13:51:36.529Z,99393.59
2023-01-18T13:54:04.777Z,99394.84
2023-01-18T13:56:33.353Z,99391.59
2023-01-18T13:59:18.443Z,99394.00
2023-01-18T14:01:48.949Z,99401.28
2023-01-18T14:04:32.772Z,99399.06
2023-01-18T14:07:03.704Z,99411.44
2023-01-18T14:09:46.427Z,99415.94
2023-01-18T14:12:14.705Z,99409.31
2023-01-18T14:15:01.064Z,99425.47
2023-01-18T14:17:30.817Z,99427.19
2023-01-18T14:20:33.902Z,99428.91
2023-01-18T14:23:24.376Z,99439.25
2023-01-18T14:25:57.518Z,99430.00
2023-01-18T14:28:37.783Z,99441.16
2023-01-18T14:31:07.225Z,99436.50
2023-01-18T14:33:37.512Z,99436.69
2023-01-18T14:36:06.667Z,99451.13
2023-01-18T14:38:33.348Z,99443.38
2023-01-18T14:41:05.239Z,99450.84
2023-01-18T14:43:37.117Z,99457.03
2023-01-18T14:46:07.406Z,99456.19
2023-01-18T14:48:43.048Z,99456.53
2023-01-18T14:51:09.914Z,99465.53
2023-01-18T14:53:46.361Z,99464.75
2023-01-18T14:56:22.376Z,99469.03
2023-01-18T14:59:00.439Z,99475.19
2023-01-18T15:01:33.380Z,99483.78
2023-01-18T15:04:21.167Z,99480.41
2023-01-18T15:07:10.592Z,99474.81
2023-01-18T15:09:39.753Z,99474.28
2023-01-18T15:12:10.798Z,99476.50
2023-01-18T15:14:43.919Z,99481.44
2023-01-18T15:17:21.482Z,99487.41
2023-01-18T15:20:02.691Z,99493.66
2023-01-18T15:22:33.014Z,99495.22
2023-01-18T15:25:01.374Z,99511.19
2023-01-18T15:27:32.445Z,99517.56
2023-01-18T15:30:01.211Z,99520.69
2023-01-18T15:32:34.015Z,99523.72
2023-01-18T15:35:02.995Z,99523.88
2023-01-18T15:37:40.020Z,99523.25
2023-01-18T15:40:12.824Z,99527.78
2023-01-18T15:42:45.285Z,99520.09
2023-01-18T15:45:24.427Z,99528.78
2023-01-18T15:48:00.798Z,99528.44
2023-01-18T15:50:43.145Z,99537.16
2023-01-18T15:53:18.167Z,99540.22
2023-01-18T15:55:58.502Z,99533.09
2023-01-18T15:58:40.442Z,99546.88
2023-01-18T16:01:16.448Z,99544.91
2023-01-18T16:03:46.161Z,99541.19
2023-01-18T16:06:22.796Z,99537.56
2023-01-18T16:09:13.306Z,99548.09
2023-01-18T16:11:54.472Z,99538.44
2023-01-18T16:14:38.387Z,99544.56
2023-01-18T16:17:11.249Z,99551.53
2023-01-18T16:19:49.007Z,99548.84
2023-01-18T16:22:28.174Z,99549.59
2023-01-18T16:25:06.961Z,99545.75
2023-01-18T16:27:34.281Z,99549.31
2023-01-18T16:30:17.534Z,99544.56
2023-01-18T16:32:44.379Z,99549.81
2023-01-18T16:35:19.979Z,99550.84
2023-01-18T16:37:47.688Z,99544.81
2023-01-18T16:40:23.120Z,99536.94
2023-01-18T16:43:01.219Z,99542.53
2023-01-18T16:45:29.845Z,99540.84
2023-01-18T16:47:57.342Z,99539.56
2023-01-18T16:50:24.296Z,99545.69
2023-01-18T16:52:51.034Z,99547.81
2023-01-18T16:55:18.238Z,99552.53
2023-01-18T16:57:45.440Z,99554.38
2023-01-18T17:00:22.777Z,99555.59
2023-01-18T17:02:50.055Z,99550.81
2023-01-18T17:05:17.700Z,99557.63
2023-01-18T17:07:45.386Z,99557.16
2023-01-18T17:10:38.050Z,99558.38
2023-01-18T17:13:04.991Z,99565.63
2023-01-18T17:15:34.540Z,99565.44
2023-01-18T17:18:02.311Z,99561.28
2023-01-18T17:20:30.308Z,99565.53
2023-01-18T17:22:57.573Z,99571.69
2023-01-18T17:25:24.639Z,99556.66
2023-01-18T17:27:51.970Z,99568.69
2023-01-18T17:30:21.333Z,99576.69
2023-01-18T17:32:48.520Z,99574.28
2023-01-18T17:35:16.743Z,99576.16
2023-01-18T17:37:43.535Z,99581.19
2023-01-18T17:40:17.046Z,99570.03
2023-01-18T17:42:49.939Z,99569.63
2023-01-18T17:45:17.644Z,99567.13
2023-01-18T17:47:44.594Z,99576.06
2023-01-18T17:50:15.570Z,99575.28
2023-01-18T17:52:42.226Z,99568.78
2023-01-18T17:55:13.565Z,99570.41
2023-01-18T17:57:41.142Z,99563.75
2023-01-18T18:00:11.752Z,99568.31
2023-01-18T18:02:38.467Z,99570.56
2023-01-18T18:05:05.867Z,99569.56
2023-01-18T18:07:33.198Z,99575.72
2023-01-18T18:10:01.534Z,99570.38
2023-01-18T18:12:33.135Z,99566.31
2023-01-18T18:15:00.157Z,99571.22
2023-01-18T18:17:29.501Z,99581.06
2023-01-18T18:19:56.666Z,99577.44
2023-01-18T18:22:23.827Z,99582.91
2023-01-18T18:24:52.241Z,99578.13
2023-01-18T18:27:19.546Z,99573.72
2023-01-18T18:29:47.828Z,99576.94
2023-01-18T18:32:15.377Z,99580.50
2023-01-18T18:34:42.169Z,99577.34
2023-01-18T18:37:09.051Z,99578.19
2023-01-18T18:39:42.794Z,99575.84
2023-01-18T18:42:09.905Z,99580.97
2023-01-18T18:44:42.536Z,99585.91
2023-01-18T18:47:10.598Z,99583.53
2023-01-18T18:49:43.274Z,99580.25
2023-01-18T18:52:10.057Z,99592.19
2023-01-18T18:54:36.802Z,99591.66
2023-01-18T18:57:03.596Z,99594.38
2023-01-18T18:59:31.082Z,99583.69
2023-01-18T19:01:57.879Z,99591.50
2023-01-18T19:04:26.350Z,99588.88
2023-01-18T19:06:53.952Z,99589.44
2023-01-18T19:09:25.388Z,99582.69
2023-01-18T19:11:55.315Z,99580.72
2023-01-18T19:14:25.775Z,99582.69
2023-01-18T19:16:55.464Z,99581.34
2023-01-18T19:19:22.231Z,99585.13
2023-01-18T19:21:50.153Z,99576.94
2023-01-18T19:27:51.609Z,99586.38
2023-01-18T19:30:21.710Z,99574.91
2023-01-18T19:32:50.904Z,99580.56
2023-01-18T19:35:19.086Z,99580.09
2023-01-18T19:37:47.658Z,99583.66
2023-01-18T19:40:15.960Z,99590.28
2023-01-18T19:42:46.098Z,99575.06
2023-01-18T19:45:19.679Z,99571.59
2023-01-18T19:47:55.613Z,99571.94
2023-01-18T19:50:23.270Z,99570.75
2023-01-18T19:52:50.572Z,99567.69
2023-01-18T19:55:17.335Z,99558.25
2023-01-18T19:57:44.078Z,99555.84
2023-01-18T20:00:11.581Z,99558.84
2023-01-18T20:02:39.150Z,99564.78
2023-01-18T20:05:07.366Z,99556.22
2023-01-18T20:07:34.128Z,99561.66
2023-01-18T20:10:01.206Z,99553.38
2023-01-18T20:12:31.305Z,99551.03
2023-01-18T20:14:58.491Z,99550.09
2023-01-18T20:17:26.513Z,99548.03
2023-01-18T20:19:54.281Z,99542.25
2023-01-18T20:22:22.125Z,99557.00
2023-01-18T20:24:49.148Z,99548.31
2023-01-18T20:27:17.219Z,99551.97
2023-01-18T20:29:45.020Z,99553.53
2023-01-18T20:32:19.285Z,99545.69
2023-01-18T20:34:47.038Z,99548.31
2023-01-18T20:37:15.859Z,99538.56
2023-01-18T20:39:42.831Z,99543.34
2023-01-18T20:42:09.839Z,99533.59
2023-01-18T20:44:36.772Z,99535.78
2023-01-18T20:47:05.564Z,99525.09
2023-01-18T20:49:38.420Z,99522.66
2023-01-18T20:52:08.991Z,99518.81
2023-01-18T20:54:36.666Z,99532.31
2023-01-18T20:57:07.204Z,99526.44
2023-01-18T20:59:35.256Z,99522.13
2023-01-18T21:02:03.154Z,99531.94
2023-01-18T21:04:30.996Z,99516.63
2023-01-18T21:06:58.300Z,99521.63
2023-01-18T21:09:25.601Z,99523.38
2023-01-18T21:11:52.364Z,99521.78
2023-01-18T21:14:19.218Z,99529.59
2023-01-18T21:16:46.533Z,99518.50
2023-01-18T21:19:14.202Z,99521.09
2023-01-18T21:21:40.984Z,99515.00
2023-01-18T21:24:08.024Z,99521.47
2023-01-18T21:26:36.134Z,99511.13
2023-01-18T21:29:02.861Z,99513.16
2023-01-18T21:31:29.657Z,99511.00
2023-01-18T21:33:56.507Z,99525.53
2023-01-18T21:36:23.302Z,99511.75
2023-01-18T21:38:52.999Z,99514.47
2023-01-18T21:41:38.216Z,99512.19
2023-01-18T21:44:23.153Z,99504.94
2023-01-18T21:46:52.104Z,99510.97
2023-01-18T21:50:11.231Z,99502.72
2023-01-18T21:52:48.078Z,99514.25
2023-01-18T21:55:16.340Z,99503.81
2023-01-18T21:57:43.241Z,99497.09
2023-01-18T22:00:10.762Z,99500.72
2023-01-18T22:02:39.633Z,99498.31
2023-01-18T22:05:08.590Z,99503.56
2023-01-18T22:07:35.786Z,99511.34
2023-01-18T22:10:06.655Z,99506.78
2023-01-18T22:12:35.819Z,99499.53
2023-01-18T22:15:04.393Z,99505.81
2023-01-18T22:17:31.447Z,99497.97
2023-01-18T22:19:58.702Z,99497.88
2023-01-18T22:22:26.146Z,99499.53
2023-01-18T22:24:56.580Z,99496.44
2023-01-18T22:27:23.298Z,99504.09
2023-01-18T22:29:50.068Z,99488.13
2023-01-18T22:32:17.028Z,99502.97
2023-01-18T22:34:43.777Z,99495.97
2023-01-18T22:37:10.480Z,99487.19
2023-01-18T22:39:37.580Z,99477.81
2023-01-18T22:42:04.529Z,99476.50
2023-01-18T22:44:32.825Z,99469.69
2023-01-18T22:46:59.535Z,99464.78
2023-01-18T22:49:26.258Z,99465.56
2023-01-18T22:51:52.941Z,99463.06
2023-01-18T22:54:22.518Z,99467.53
2023-01-18T22:56:49.406Z,99462.88
2023-01-18T22:59:16.261Z,99450.66
2023-01-18T23:01:43.322Z,99447.47
2023-01-18T23:04:10.353Z,99439.09
2023-01-18T23:06:46.603Z,99432.13
2023-01-18T23:09:15.217Z,99426.16
2023-01-18T23:11:42.214Z,99416.50
2023-01-18T23:14:27.308Z,99412.09
2023-01-18T23:17:12.767Z,99397.63
2023-01-18T23:19:39.445Z,99391.44
2023-01-18T23:22:07.456Z,99394.72
2023-01-18T23:24:35.659Z,99389.44
2023-01-18T23:27:03.572Z,99366.16
2023-01-18T23:29:30.801Z,99372.53
2023-01-18T23:31:58.302Z,99366.75
2023-01-18T23:34:25.465Z,99365.03
2023-01-18T23:36:54.272Z,99358.38
2023-01-18T23:39:41.464Z,99359.25
2023-01-18T23:42:27.258Z,99357.81
2023-01-18T23:45:12.288Z,99354.19
2023-01-18T23:47:59.380Z,99350.50
2023-01-18T23:50:44.814Z,99343.44
2023-01-18T23:53:31.496Z,99333.22
2023-01-18T23:55:58.759Z,99320.03
2023-01-18T23:58:25.825Z,99312.19
